createdAt,value
2019-01-15T00:00:28.482Z,1010.01
2019-01-15T00:01:28.740Z,1010.08
2019-01-15T00:02:28.854Z,1010.06
2019-01-15T00:03:28.933Z,1010.07
2019-01-15T00:04:29.003Z,1010.03
2019-01-15T00:05:29.115Z,1010.10
2019-01-15T00:06:29.169Z,1010.09
2019-01-15T00:07:29.235Z,1009.97
2019-01-15T00:08:29.324Z,1009.94
2019-01-15T00:09:29.368Z,1009.97
2019-01-15T00:10:29.453Z,1010.01
2019-01-15T00:11:29.476Z,1009.95
2019-01-15T00:12:29.519Z,1009.96
2019-01-15T00:13:29.562Z,1009.94
2019-01-15T00:14:29.588Z,1009.89
2019-01-15T00:15:29.629Z,1009.98
2019-01-15T00:16:29.645Z,1009.99
2019-01-15T00:17:29.662Z,1009.96
2019-01-15T00:18:29.683Z,1009.98
2019-01-15T00:19:29.732Z,1010.05
2019-01-15T00:20:29.763Z,1010.00
2019-01-15T00:21:29.798Z,1010.09
2019-01-15T00:22:29.872Z,1010.11
2019-01-15T00:23:29.895Z,1010.11
2019-01-15T00:24:29.938Z,1010.02
2019-01-15T00:25:29.963Z,1010.12
2019-01-15T00:26:30.004Z,1010.05
2019-01-15T00:27:30.086Z,1010.24
2019-01-15T00:28:30.066Z,1010.16
2019-01-15T00:29:30.102Z,1010.22
2019-01-15T00:30:30.129Z,1010.18
2019-01-15T00:31:30.163Z,1010.21
2019-01-15T00:32:30.219Z,1010.22
2019-01-15T00:33:30.264Z,1010.24
2019-01-15T00:34:30.299Z,1010.23
2019-01-15T00:35:30.339Z,1010.29
2019-01-15T00:36:30.360Z,1010.20
2019-01-15T00:37:30.400Z,1010.25
2019-01-15T00:38:30.447Z,1010.27
2019-01-15T00:39:30.479Z,1010.26
2019-01-15T00:40:30.531Z,1010.25
2019-01-15T00:41:30.567Z,1010.26
2019-01-15T00:42:30.595Z,1010.32
2019-01-15T00:43:30.653Z,1010.30
2019-01-15T00:44:30.511Z,1010.32
2019-01-15T00:45:30.928Z,1010.30
2019-01-15T00:46:31.606Z,1010.27
2019-01-15T00:47:31.653Z,1010.37
2019-01-15T00:49:31.511Z,1010.39
2019-01-15T00:50:31.708Z,1010.38
2019-01-15T00:51:31.969Z,1010.40
2019-01-15T00:52:32.381Z,1010.50
2019-01-15T00:53:32.880Z,1010.41
2019-01-15T00:54:33.376Z,1010.42
2019-01-15T00:55:33.811Z,1010.44
2019-01-15T00:56:34.035Z,1010.45
2019-01-15T00:57:34.521Z,1010.42
2019-01-15T00:58:34.755Z,1010.42
2019-01-15T00:59:35.090Z,1010.43
2019-01-15T01:00:35.341Z,1010.53
2019-01-15T01:01:35.796Z,1010.54
2019-01-15T01:02:36.012Z,1010.44
2019-01-15T01:03:36.229Z,1010.51
2019-01-15T01:04:36.460Z,1010.54
2019-01-15T01:05:36.703Z,1010.50
2019-01-15T01:06:37.176Z,1010.54
2019-01-15T01:07:37.728Z,1010.57
2019-01-15T01:08:37.603Z,1010.56
2019-01-15T01:09:48.788Z,1010.52
2019-01-15T01:10:42.557Z,1010.63
2019-01-15T01:11:38.424Z,1010.57
2019-01-15T01:12:39.092Z,1010.65
2019-01-15T01:13:50.434Z,1010.58
2019-01-15T01:14:40.451Z,1010.58
2019-01-15T01:15:40.356Z,1010.66
2019-01-15T01:16:41.689Z,1010.68
2019-01-15T01:17:40.755Z,1010.65
2019-01-15T01:18:41.020Z,1010.71
2019-01-15T01:19:41.283Z,1010.73
2019-01-15T01:20:41.511Z,1010.70
2019-01-15T01:21:41.600Z,1010.73
2019-01-15T01:22:41.712Z,1010.70
2019-01-15T01:23:41.809Z,1010.74
2019-01-15T01:24:44.509Z,1010.62
2019-01-15T01:25:42.041Z,1010.67
2019-01-15T01:26:42.153Z,1010.69
2019-01-15T01:28:42.260Z,1010.70
2019-01-15T01:29:42.390Z,1010.77
2019-01-15T01:30:42.601Z,1010.66
2019-01-15T01:31:42.712Z,1010.68
2019-01-15T01:32:42.832Z,1010.69
2019-01-15T01:33:42.925Z,1010.68
2019-01-15T01:34:43.012Z,1010.69
2019-01-15T01:35:43.114Z,1010.64
2019-01-15T01:36:43.146Z,1010.71
2019-01-15T01:37:43.158Z,1010.70
2019-01-15T01:38:43.252Z,1010.66
2019-01-15T01:39:43.255Z,1010.65
2019-01-15T01:40:43.815Z,1010.68
2019-01-15T01:41:43.909Z,1010.71
2019-01-15T01:42:43.984Z,1010.69
2019-01-15T01:43:44.062Z,1010.60
2019-01-15T01:44:44.132Z,1010.72
2019-01-15T01:45:44.201Z,1010.66
2019-01-15T01:46:44.280Z,1010.62
2019-01-15T01:47:44.318Z,1010.70
2019-01-15T01:48:44.377Z,1010.67
2019-01-15T01:49:44.402Z,1010.68
2019-01-15T01:50:44.449Z,1010.76
2019-01-15T01:51:44.465Z,1010.78
2019-01-15T01:52:44.498Z,1010.77
2019-01-15T01:53:44.547Z,1010.79
2019-01-15T01:54:44.555Z,1010.81
2019-01-15T01:55:44.593Z,1010.80
2019-01-15T01:56:44.628Z,1010.81
2019-01-15T01:57:44.713Z,1010.85
2019-01-15T01:58:44.736Z,1010.89
2019-01-15T01:59:44.748Z,1010.88
2019-01-15T02:00:44.773Z,1010.88
2019-01-15T02:01:44.800Z,1010.81
2019-01-15T02:02:44.814Z,1010.89
2019-01-15T02:03:44.816Z,1010.87
2019-01-15T02:04:44.919Z,1010.88
2019-01-15T02:05:44.921Z,1010.89
2019-01-15T02:06:44.936Z,1010.90
2019-01-15T02:07:44.928Z,1010.87
2019-01-15T02:08:45.093Z,1010.87
2019-01-15T02:09:45.093Z,1010.89
2019-01-15T02:10:45.106Z,1010.97
2019-01-15T02:11:45.120Z,1011.01
2019-01-15T02:12:45.120Z,1010.96
2019-01-15T02:13:45.743Z,1010.96
2019-01-15T02:14:45.927Z,1010.92
2019-01-15T02:15:45.896Z,1010.95
2019-01-15T02:16:46.161Z,1010.98
2019-01-15T02:17:46.629Z,1010.95
2019-01-15T02:18:46.817Z,1010.95
2019-01-15T02:19:47.016Z,1010.95
2019-01-15T02:20:47.229Z,1010.95
2019-01-15T02:21:47.550Z,1010.97
2019-01-15T02:22:47.862Z,1010.79
2019-01-15T02:24:48.090Z,1010.88
2019-01-15T02:25:48.332Z,1010.84
2019-01-15T02:26:48.668Z,1010.88
2019-01-15T02:27:48.879Z,1010.86
2019-01-15T02:28:49.311Z,1010.85
2019-01-15T02:29:49.258Z,1010.91
2019-01-15T02:30:49.704Z,1010.91
2019-01-15T02:31:50.142Z,1010.91
2019-01-15T02:32:50.386Z,1010.87
2019-01-15T02:33:50.835Z,1010.83
2019-01-15T02:34:51.077Z,1010.79
2019-01-15T02:35:51.293Z,1010.91
2019-01-15T02:36:51.496Z,1010.86
2019-01-15T02:37:51.766Z,1010.85
2019-01-15T02:38:52.096Z,1010.82
2019-01-15T02:39:52.307Z,1010.92
2019-01-15T02:40:52.525Z,1010.86
2019-01-15T02:41:52.901Z,1010.92
2019-01-15T02:42:53.222Z,1010.95
2019-01-15T02:43:53.549Z,1010.90
2019-01-15T02:44:53.435Z,1010.88
2019-01-15T02:45:53.934Z,1010.92
2019-01-15T02:46:54.144Z,1010.91
2019-01-15T02:47:54.473Z,1010.95
2019-01-15T02:48:54.682Z,1010.98
2019-01-15T02:49:55.101Z,1010.93
2019-01-15T02:50:55.670Z,1011.01
2019-01-15T02:51:55.716Z,1010.88
2019-01-15T02:52:55.793Z,1010.88
2019-01-15T02:53:55.870Z,1011.02
2019-01-15T02:54:55.922Z,1010.95
2019-01-15T02:55:55.942Z,1010.98
2019-01-15T02:56:56.012Z,1011.02
2019-01-15T02:57:56.075Z,1011.05
2019-01-15T02:58:56.157Z,1011.06
2019-01-15T02:59:56.198Z,1010.95
2019-01-15T03:00:56.274Z,1011.02
2019-01-15T03:01:56.366Z,1011.02
2019-01-15T03:02:56.414Z,1011.10
2019-01-15T03:03:56.465Z,1011.01
2019-01-15T03:04:56.550Z,1011.04
2019-01-15T03:05:56.621Z,1011.05
2019-01-15T03:06:56.692Z,1011.02
2019-01-15T03:08:56.760Z,1010.96
2019-01-15T03:09:56.837Z,1011.08
2019-01-15T03:10:56.895Z,1011.08
2019-01-15T03:11:56.975Z,1011.08
2019-01-15T03:12:57.125Z,1010.97
2019-01-15T03:13:57.181Z,1011.05
2019-01-15T03:14:57.236Z,1011.10
2019-01-15T03:15:57.313Z,1011.06
2019-01-15T03:16:57.401Z,1011.05
2019-01-15T03:17:57.497Z,1011.01
2019-01-15T03:18:57.570Z,1011.02
2019-01-15T03:19:57.650Z,1011.03
2019-01-15T03:20:57.763Z,1011.04
2019-01-15T03:21:57.789Z,1011.05
2019-01-15T03:22:57.902Z,1011.04
2019-01-15T03:23:57.985Z,1011.08
2019-01-15T03:24:57.992Z,1010.96
2019-01-15T03:25:58.034Z,1010.93
2019-01-15T03:27:58.101Z,1010.86
2019-01-15T03:28:58.103Z,1010.85
2019-01-15T03:29:58.182Z,1010.80
2019-01-15T03:30:58.216Z,1010.81
2019-01-15T03:31:58.238Z,1010.79
2019-01-15T03:32:58.248Z,1010.83
2019-01-15T03:33:58.268Z,1010.78
2019-01-15T03:34:58.257Z,1010.73
2019-01-15T03:35:58.767Z,1010.77
2019-01-15T03:36:58.801Z,1010.70
2019-01-15T03:37:58.804Z,1010.74
2019-01-15T03:38:58.881Z,1010.73
2019-01-15T03:39:58.872Z,1010.74
2019-01-15T03:40:59.392Z,1010.68
2019-01-15T03:41:59.500Z,1010.74
2019-01-15T03:43:03.930Z,1010.77
2019-01-15T03:43:59.542Z,1010.72
2019-01-15T03:45:00.044Z,1010.77
2019-01-15T03:46:04.524Z,1010.73
2019-01-15T03:47:00.081Z,1010.70
2019-01-15T03:48:00.101Z,1010.59
2019-01-15T03:49:00.113Z,1010.66
2019-01-15T03:50:00.260Z,1010.67
2019-01-15T03:52:00.188Z,1010.63
2019-01-15T03:53:00.239Z,1010.68
2019-01-15T03:54:00.320Z,1010.68
2019-01-15T03:55:00.276Z,1010.63
2019-01-15T03:56:00.364Z,1010.69
2019-01-15T03:57:00.380Z,1010.74
2019-01-15T03:58:00.406Z,1010.76
2019-01-15T03:59:00.459Z,1010.74
2019-01-15T04:00:00.480Z,1010.82
2019-01-15T04:01:00.789Z,1010.76
2019-01-15T04:02:00.899Z,1010.84
2019-01-15T04:03:00.954Z,1010.75
2019-01-15T04:04:00.907Z,1010.70
2019-01-15T04:05:01.618Z,1010.63
2019-01-15T04:06:01.677Z,1010.51
2019-01-15T04:07:01.866Z,1010.48
2019-01-15T04:08:01.840Z,1010.47
2019-01-15T04:09:02.398Z,1010.41
2019-01-15T04:10:02.594Z,1010.42
2019-01-15T04:11:02.689Z,1010.39
2019-01-15T04:12:02.712Z,1010.24
2019-01-15T04:13:02.770Z,1010.31
2019-01-15T04:14:02.800Z,1010.27
2019-01-15T04:15:02.840Z,1010.16
2019-01-15T04:16:02.944Z,1010.21
2019-01-15T04:17:02.934Z,1010.26
2019-01-15T04:18:02.967Z,1010.20
2019-01-15T04:19:03.030Z,1010.17
2019-01-15T04:20:03.088Z,1010.14
2019-01-15T04:21:03.442Z,1010.10
2019-01-15T04:22:03.199Z,1010.07
2019-01-15T04:23:03.777Z,1010.16
2019-01-15T04:24:03.585Z,1010.13
2019-01-15T04:25:04.211Z,1010.17
2019-01-15T04:26:04.042Z,1010.15
2019-01-15T04:27:05.190Z,1010.17
2019-01-15T04:28:04.829Z,1010.18
2019-01-15T04:29:05.084Z,1010.17
2019-01-15T04:30:05.653Z,1010.21
2019-01-15T04:31:05.777Z,1010.22
2019-01-15T04:32:06.224Z,1010.24
2019-01-15T04:33:06.681Z,1010.27
2019-01-15T04:34:06.959Z,1010.26
2019-01-15T04:35:07.147Z,1010.33
2019-01-15T04:36:07.498Z,1010.37
2019-01-15T04:37:07.801Z,1010.40
2019-01-15T04:38:08.058Z,1010.36
2019-01-15T04:39:08.423Z,1010.35
2019-01-15T04:40:08.689Z,1010.39
2019-01-15T04:41:08.808Z,1010.38
2019-01-15T04:42:09.184Z,1010.32
2019-01-15T04:43:09.548Z,1010.32
2019-01-15T04:44:09.805Z,1010.28
2019-01-15T04:45:10.212Z,1010.29
2019-01-15T04:46:10.308Z,1010.20
2019-01-15T04:47:10.898Z,1010.24
2019-01-15T04:48:10.949Z,1010.26
2019-01-15T04:49:11.060Z,1010.24
2019-01-15T04:50:11.166Z,1010.24
2019-01-15T04:51:11.518Z,1010.23
2019-01-15T04:52:11.599Z,1010.30
2019-01-15T04:53:11.687Z,1010.25
2019-01-15T04:54:11.802Z,1010.17
2019-01-15T04:55:11.911Z,1010.30
2019-01-15T04:56:12.060Z,1010.25
2019-01-15T04:57:12.134Z,1010.27
2019-01-15T04:59:12.255Z,1010.26
2019-01-15T05:00:12.441Z,1010.30
2019-01-15T05:01:12.463Z,1010.38
2019-01-15T05:02:12.588Z,1010.32
2019-01-15T05:03:12.691Z,1010.35
2019-01-15T05:04:12.804Z,1010.31
2019-01-15T05:05:12.921Z,1010.35
2019-01-15T05:06:13.018Z,1010.42
2019-01-15T05:07:13.094Z,1010.42
2019-01-15T05:08:13.171Z,1010.36
2019-01-15T05:09:13.748Z,1010.35
2019-01-15T05:10:13.334Z,1010.34
2019-01-15T05:11:13.392Z,1010.32
2019-01-15T05:12:13.399Z,1010.28
2019-01-15T05:13:13.454Z,1010.28
2019-01-15T05:14:13.522Z,1010.30
2019-01-15T05:15:13.324Z,1010.29
2019-01-15T05:16:13.923Z,1010.29
2019-01-15T05:17:14.005Z,1010.29
2019-01-15T05:18:14.104Z,1010.33
2019-01-15T05:19:14.193Z,1010.29
2019-01-15T05:20:14.313Z,1010.33
2019-01-15T05:21:14.400Z,1010.31
2019-01-15T05:22:14.475Z,1010.22
2019-01-15T05:23:14.541Z,1010.19
2019-01-15T05:24:14.582Z,1010.21
2019-01-15T05:25:14.950Z,1010.13
2019-01-15T05:26:14.803Z,1010.18
2019-01-15T05:27:14.848Z,1010.10
2019-01-15T05:28:14.883Z,1010.10
2019-01-15T05:29:14.916Z,1010.14
2019-01-15T05:30:14.994Z,1010.17
2019-01-15T05:31:15.398Z,1010.18
2019-01-15T05:32:15.465Z,1010.20
2019-01-15T05:33:15.541Z,1010.14
2019-01-15T05:34:15.590Z,1010.15
2019-01-15T05:36:15.676Z,1010.12
2019-01-15T05:37:15.779Z,1010.19
2019-01-15T05:38:16.019Z,1010.13
2019-01-15T05:39:16.134Z,1010.10
2019-01-15T05:40:16.274Z,1010.19
2019-01-15T05:41:16.169Z,1010.21
2019-01-15T05:42:16.703Z,1010.23
2019-01-15T05:43:16.761Z,1010.29
2019-01-15T05:44:16.647Z,1010.21
2019-01-15T05:45:16.938Z,1010.26
2019-01-15T05:46:17.368Z,1010.22
2019-01-15T05:47:17.879Z,1010.23
2019-01-15T05:48:17.795Z,1010.22
2019-01-15T05:49:18.027Z,1010.26
2019-01-15T05:50:18.307Z,1010.21
2019-01-15T05:51:18.534Z,1010.27
2019-01-15T05:52:18.862Z,1010.24
2019-01-15T05:53:19.135Z,1010.28
2019-01-15T05:54:19.422Z,1010.24
2019-01-15T05:55:19.665Z,1010.34
2019-01-15T05:56:20.141Z,1010.27
2019-01-15T05:57:20.442Z,1010.39
2019-01-15T05:58:20.699Z,1010.35
2019-01-15T05:59:21.181Z,1010.31
2019-01-15T06:00:21.630Z,1010.36
2019-01-15T06:01:21.946Z,1010.28
2019-01-15T06:02:22.226Z,1010.32
2019-01-15T06:03:22.471Z,1010.30
2019-01-15T06:04:22.722Z,1010.30
2019-01-15T06:05:23.000Z,1010.16
2019-01-15T06:06:23.243Z,1010.27
2019-01-15T06:07:23.568Z,1010.32
2019-01-15T06:08:23.823Z,1010.31
2019-01-15T06:09:24.046Z,1010.28
2019-01-15T06:10:24.316Z,1010.34
2019-01-15T06:11:24.543Z,1010.31
2019-01-15T06:12:24.821Z,1010.39
2019-01-15T06:13:25.127Z,1010.33
2019-01-15T06:14:25.619Z,1010.30
2019-01-15T06:15:25.695Z,1010.32
2019-01-15T06:17:26.177Z,1010.29
2019-01-15T06:18:26.303Z,1010.17
2019-01-15T06:19:26.404Z,1010.16
2019-01-15T06:20:26.487Z,1010.15
2019-01-15T06:21:26.606Z,1010.05
2019-01-15T06:22:26.723Z,1010.14
2019-01-15T06:23:26.833Z,1010.13
2019-01-15T06:24:27.028Z,1010.11
2019-01-15T06:25:27.131Z,1010.18
2019-01-15T06:26:27.236Z,1010.10
2019-01-15T06:27:27.343Z,1010.12
2019-01-15T06:28:27.448Z,1010.14
2019-01-15T06:29:27.548Z,1010.09
2019-01-15T06:30:27.679Z,1010.18
2019-01-15T06:31:27.773Z,1010.17
2019-01-15T06:32:27.888Z,1010.06
2019-01-15T06:33:27.997Z,1010.16
2019-01-15T06:34:28.033Z,1010.14
2019-01-15T06:35:28.155Z,1010.09
2019-01-15T06:36:28.230Z,1010.09
2019-01-15T06:37:28.251Z,1010.14
2019-01-15T06:38:28.254Z,1010.14
2019-01-15T06:39:28.270Z,1010.14
2019-01-15T06:40:28.310Z,1010.12
2019-01-15T06:41:28.344Z,1010.07
2019-01-15T06:42:28.387Z,1010.07
2019-01-15T06:43:28.404Z,1010.06
2019-01-15T06:44:28.430Z,1010.10
2019-01-15T06:45:28.979Z,1010.07
2019-01-15T06:46:29.094Z,1010.06
2019-01-15T06:47:29.201Z,1010.05
2019-01-15T06:48:29.284Z,1010.02
2019-01-15T06:49:29.306Z,1010.05
2019-01-15T06:50:29.388Z,1010.10
2019-01-15T06:51:29.474Z,1010.06
2019-01-15T06:52:29.524Z,1010.18
2019-01-15T06:53:29.559Z,1010.09
2019-01-15T06:54:29.600Z,1010.10
2019-01-15T06:55:29.672Z,1010.16
2019-01-15T06:56:29.723Z,1010.13
2019-01-15T06:57:29.796Z,1010.21
2019-01-15T06:58:29.839Z,1010.21
2019-01-15T06:59:29.862Z,1010.12
2019-01-15T07:00:29.967Z,1010.15
2019-01-15T07:01:30.003Z,1010.13
2019-01-15T07:02:30.031Z,1010.22
2019-01-15T07:03:30.236Z,1010.24
2019-01-15T07:04:30.307Z,1010.15
2019-01-15T07:05:30.342Z,1010.25
2019-01-15T07:06:30.444Z,1010.15
2019-01-15T07:07:30.562Z,1010.23
2019-01-15T07:08:30.618Z,1010.19
2019-01-15T07:09:30.680Z,1010.18
2019-01-15T07:10:30.694Z,1010.26
2019-01-15T07:11:31.071Z,1010.07
2019-01-15T07:12:31.637Z,1010.24
2019-01-15T07:13:31.802Z,1010.32
2019-01-15T07:14:31.790Z,1010.35
2019-01-15T07:15:31.623Z,1010.38
2019-01-15T07:16:32.218Z,1010.34
2019-01-15T07:17:31.968Z,1010.34
2019-01-15T07:18:32.413Z,1010.21
2019-01-15T07:19:33.008Z,1010.19
2019-01-15T07:20:32.949Z,1010.23
2019-01-15T07:21:33.206Z,1010.25
2019-01-15T07:22:33.667Z,1010.18
2019-01-15T07:23:33.448Z,1010.29
2019-01-15T07:24:34.121Z,1010.19
2019-01-15T07:25:34.037Z,1010.35
2019-01-15T07:26:34.352Z,1010.28
2019-01-15T07:27:34.596Z,1010.22
2019-01-15T07:28:34.860Z,1010.19
2019-01-15T07:29:35.100Z,1010.20
2019-01-15T07:30:35.382Z,1010.26
2019-01-15T07:31:35.756Z,1010.20
2019-01-15T07:32:36.693Z,1010.20
2019-01-15T07:33:36.274Z,1010.35
2019-01-15T07:34:36.086Z,1010.22
2019-01-15T07:35:36.551Z,1010.32
2019-01-15T07:36:36.711Z,1010.39
2019-01-15T07:37:36.933Z,1010.42
2019-01-15T07:38:37.292Z,1010.43
2019-01-15T07:39:37.593Z,1010.47
2019-01-15T07:40:38.039Z,1010.43
2019-01-15T07:41:38.291Z,1010.60
2019-01-15T07:42:38.667Z,1010.50
2019-01-15T07:43:38.937Z,1010.54
2019-01-15T07:44:39.359Z,1010.55
2019-01-15T07:45:39.870Z,1010.52
2019-01-15T07:46:40.244Z,1010.48
2019-01-15T07:47:40.867Z,1010.49
2019-01-15T07:48:41.005Z,1010.60
2019-01-15T07:49:41.133Z,1010.50
2019-01-15T07:50:44.161Z,1010.46
2019-01-15T07:51:41.253Z,1010.35
2019-01-15T07:52:41.331Z,1010.44
2019-01-15T07:53:41.496Z,1010.43
2019-01-15T07:54:41.578Z,1010.46
2019-01-15T07:55:41.683Z,1010.47
2019-01-15T07:56:41.796Z,1010.46
2019-01-15T07:57:41.898Z,1010.47
2019-01-15T07:58:42.068Z,1010.48
2019-01-15T07:59:42.172Z,1010.49
2019-01-15T08:00:42.278Z,1010.50
2019-01-15T08:01:42.388Z,1010.52
2019-01-15T08:02:42.606Z,1010.51
2019-01-15T08:03:42.768Z,1010.52
2019-01-15T08:04:42.862Z,1010.53
2019-01-15T08:05:42.964Z,1010.52
2019-01-15T08:06:43.012Z,1010.54
2019-01-15T08:07:43.043Z,1010.56
2019-01-15T08:08:43.178Z,1010.59
2019-01-15T08:09:43.260Z,1010.60
2019-01-15T08:10:43.323Z,1010.61
2019-01-15T08:11:43.464Z,1010.62
2019-01-15T08:12:43.528Z,1010.61
2019-01-15T08:13:43.605Z,1010.62
2019-01-15T08:14:43.751Z,1010.60
2019-01-15T08:15:43.855Z,1010.59
2019-01-15T08:16:43.986Z,1010.59
2019-01-15T08:17:44.075Z,1010.58
2019-01-15T08:19:44.207Z,1010.57
2019-01-15T08:20:44.262Z,1010.55
2019-01-15T08:21:44.355Z,1010.51
2019-01-15T08:22:44.453Z,1010.49
2019-01-15T08:23:44.503Z,1010.49
2019-01-15T08:24:44.493Z,1010.47
2019-01-15T08:25:45.109Z,1010.47
2019-01-15T08:26:45.188Z,1010.45
2019-01-15T08:27:45.280Z,1010.46
2019-01-15T08:28:45.330Z,1010.45
2019-01-15T08:29:45.380Z,1010.45
2019-01-15T08:30:45.418Z,1010.44
2019-01-15T08:31:45.446Z,1010.45
2019-01-15T08:32:45.484Z,1010.46
2019-01-15T08:33:45.530Z,1010.49
2019-01-15T08:34:45.568Z,1010.53
2019-01-15T08:35:45.619Z,1010.55
2019-01-15T08:36:45.827Z,1010.57
2019-01-15T08:37:45.808Z,1010.60
2019-01-15T08:38:46.318Z,1010.59
2019-01-15T08:39:46.185Z,1010.57
2019-01-15T08:40:46.574Z,1010.53
2019-01-15T08:41:46.808Z,1010.52
2019-01-15T08:42:47.036Z,1010.49
2019-01-15T08:43:47.253Z,1010.50
2019-01-15T08:44:47.695Z,1010.51
2019-01-15T08:45:47.985Z,1010.51
2019-01-15T08:46:48.257Z,1010.52
2019-01-15T08:47:50.205Z,1010.53
2019-01-15T08:48:49.072Z,1010.56
2019-01-15T08:49:49.358Z,1010.60
2019-01-15T08:50:49.821Z,1010.62
2019-01-15T08:51:49.845Z,1010.64
2019-01-15T08:52:50.077Z,1010.68
2019-01-15T08:53:50.524Z,1010.69
2019-01-15T08:54:50.804Z,1010.70
2019-01-15T08:56:51.004Z,1010.71
2019-01-15T08:57:51.339Z,1010.71
2019-01-15T08:58:51.849Z,1010.68
2019-01-15T08:59:51.606Z,1010.66
2019-01-15T09:00:51.860Z,1010.66
2019-01-15T09:01:52.263Z,1010.68
2019-01-15T09:02:52.650Z,1010.66
2019-01-15T09:03:53.047Z,1010.67
2019-01-15T09:04:53.514Z,1010.68
2019-01-15T09:05:53.740Z,1010.68
2019-01-15T09:06:54.127Z,1010.65
2019-01-15T09:07:54.479Z,1010.64
2019-01-15T09:08:54.734Z,1010.62
2019-01-15T09:09:55.141Z,1010.62
2019-01-15T09:10:55.681Z,1010.62
2019-01-15T09:11:55.748Z,1010.65
2019-01-15T09:12:55.881Z,1010.68
2019-01-15T09:13:55.957Z,1010.69
2019-01-15T09:14:56.827Z,1010.68
2019-01-15T09:15:56.251Z,1010.69
2019-01-15T09:16:56.285Z,1010.68
2019-01-15T09:17:56.398Z,1010.67
2019-01-15T09:18:56.509Z,1010.65
2019-01-15T09:19:56.620Z,1010.64
2019-01-15T09:20:56.728Z,1010.64
2019-01-15T09:21:56.827Z,1010.63
2019-01-15T09:22:56.940Z,1010.62
2019-01-15T09:23:57.080Z,1010.62
2019-01-15T09:24:57.213Z,1010.58
2019-01-15T09:25:57.328Z,1010.56
2019-01-15T09:26:57.451Z,1010.58
2019-01-15T09:27:57.571Z,1010.58
2019-01-15T09:28:57.712Z,1010.58
2019-01-15T09:29:57.806Z,1010.59
2019-01-15T09:30:57.934Z,1010.59
2019-01-15T09:31:58.023Z,1010.60
2019-01-15T09:32:58.035Z,1010.60
2019-01-15T09:33:58.142Z,1010.59
2019-01-15T09:34:58.206Z,1010.57
2019-01-15T09:35:58.287Z,1010.54
2019-01-15T09:36:58.366Z,1010.54
2019-01-15T09:37:58.424Z,1010.52
2019-01-15T09:38:58.485Z,1010.51
2019-01-15T09:39:58.490Z,1010.49
2019-01-15T09:40:58.531Z,1010.47
2019-01-15T09:41:58.570Z,1010.46
2019-01-15T09:42:58.640Z,1010.44
2019-01-15T09:43:58.779Z,1010.42
2019-01-15T09:44:58.790Z,1010.41
2019-01-15T09:45:58.948Z,1010.39
2019-01-15T09:46:59.035Z,1010.39
2019-01-15T09:47:59.132Z,1010.39
2019-01-15T09:48:59.552Z,1010.39
2019-01-15T09:49:59.600Z,1010.37
2019-01-15T09:50:59.645Z,1010.36
2019-01-15T09:51:59.656Z,1010.34
2019-01-15T09:52:59.673Z,1010.33
2019-01-15T09:53:59.691Z,1010.32
2019-01-15T09:54:59.775Z,1010.31
2019-01-15T09:55:59.868Z,1010.31
2019-01-15T09:56:59.950Z,1010.31
2019-01-15T09:58:00.004Z,1010.29
2019-01-15T09:59:00.085Z,1010.28
2019-01-15T10:00:00.202Z,1010.29
2019-01-15T10:01:00.306Z,1010.30
2019-01-15T10:02:00.346Z,1010.29
2019-01-15T10:03:00.409Z,1010.28
2019-01-15T10:04:00.459Z,1010.28
2019-01-15T10:05:00.591Z,1010.26
2019-01-15T10:06:00.793Z,1010.25
2019-01-15T10:07:00.923Z,1010.24
2019-01-15T10:08:01.159Z,1010.25
2019-01-15T10:09:01.352Z,1010.27
2019-01-15T10:10:01.511Z,1010.29
2019-01-15T10:11:01.931Z,1010.33
2019-01-15T10:12:02.574Z,1010.33
2019-01-15T10:13:02.660Z,1010.33
2019-01-15T10:14:02.767Z,1010.32
2019-01-15T10:15:02.986Z,1010.29
2019-01-15T10:16:02.996Z,1010.26
2019-01-15T10:17:03.141Z,1010.24
2019-01-15T10:18:03.191Z,1010.22
2019-01-15T10:19:02.945Z,1010.19
2019-01-15T10:20:03.244Z,1010.17
2019-01-15T10:21:03.703Z,1010.14
2019-01-15T10:22:03.748Z,1010.11
2019-01-15T10:23:03.804Z,1010.09
2019-01-15T10:24:03.840Z,1010.08
2019-01-15T10:25:03.596Z,1010.07
2019-01-15T10:26:04.091Z,1010.07
2019-01-15T10:27:04.575Z,1010.08
2019-01-15T10:28:05.028Z,1010.07
2019-01-15T10:29:05.289Z,1010.07
2019-01-15T10:30:05.549Z,1010.05
2019-01-15T10:31:05.813Z,1010.03
2019-01-15T10:32:06.060Z,1010.01
2019-01-15T10:33:06.241Z,1009.99
2019-01-15T10:34:06.668Z,1009.98
2019-01-15T10:35:07.160Z,1009.94
2019-01-15T10:36:07.388Z,1009.94
2019-01-15T10:37:07.491Z,1009.92
2019-01-15T10:39:07.895Z,1009.90
2019-01-15T10:40:08.296Z,1009.88
2019-01-15T10:41:08.791Z,1009.86
2019-01-15T10:42:09.036Z,1009.85
2019-01-15T10:43:09.263Z,1009.83
2019-01-15T10:44:09.498Z,1009.83
2019-01-15T10:45:09.775Z,1009.84
2019-01-15T10:46:10.267Z,1009.83
2019-01-15T10:47:10.843Z,1009.82
2019-01-15T10:48:10.900Z,1009.81
2019-01-15T10:49:11.014Z,1009.81
2019-01-15T10:50:11.146Z,1009.80
2019-01-15T10:51:11.267Z,1009.81
2019-01-15T10:52:11.339Z,1009.79
2019-01-15T10:53:11.457Z,1009.78
2019-01-15T10:54:11.535Z,1009.78
2019-01-15T10:55:11.653Z,1009.75
2019-01-15T10:56:11.779Z,1009.74
2019-01-15T10:57:12.056Z,1009.72
2019-01-15T10:58:17.536Z,1009.71
2019-01-15T10:59:12.274Z,1009.72
2019-01-15T11:00:12.413Z,1009.72
2019-01-15T11:01:12.572Z,1009.71
2019-01-15T11:02:12.633Z,1009.70
2019-01-15T11:03:12.727Z,1009.68
2019-01-15T11:04:12.824Z,1009.64
2019-01-15T11:05:12.889Z,1009.62
2019-01-15T11:06:12.965Z,1009.61
2019-01-15T11:07:12.977Z,1009.60
2019-01-15T11:08:13.015Z,1009.60
2019-01-15T11:09:13.064Z,1009.60
2019-01-15T11:10:13.102Z,1009.59
2019-01-15T11:11:13.214Z,1009.57
2019-01-15T11:12:13.239Z,1009.55
2019-01-15T11:13:13.508Z,1009.54
2019-01-15T11:14:13.579Z,1009.54
2019-01-15T11:15:14.089Z,1009.51
2019-01-15T11:16:14.186Z,1009.51
2019-01-15T11:17:14.245Z,1009.48
2019-01-15T11:18:14.296Z,1009.48
2019-01-15T11:19:14.347Z,1009.49
2019-01-15T11:20:14.415Z,1009.48
2019-01-15T11:21:14.492Z,1009.49
2019-01-15T11:22:14.517Z,1009.48
2019-01-15T11:23:14.541Z,1009.48
2019-01-15T11:24:14.558Z,1009.47
2019-01-15T11:25:14.656Z,1009.46
2019-01-15T11:26:14.673Z,1009.46
2019-01-15T11:27:14.716Z,1009.46
2019-01-15T11:28:14.891Z,1009.46
2019-01-15T11:29:14.966Z,1009.44
2019-01-15T11:30:15.000Z,1009.44
2019-01-15T11:31:15.017Z,1009.43
2019-01-15T11:32:15.035Z,1009.42
2019-01-15T11:33:15.072Z,1009.42
2019-01-15T11:34:15.115Z,1009.42
2019-01-15T11:35:15.196Z,1009.42
2019-01-15T11:36:15.228Z,1009.41
2019-01-15T11:37:15.245Z,1009.36
2019-01-15T11:38:15.283Z,1009.35
2019-01-15T11:39:15.326Z,1009.32
2019-01-15T11:40:15.395Z,1009.29
2019-01-15T11:41:15.452Z,1009.27
2019-01-15T11:42:15.511Z,1009.26
2019-01-15T11:43:15.541Z,1009.24
2019-01-15T11:44:15.589Z,1009.22
2019-01-15T11:45:15.658Z,1009.18
2019-01-15T11:46:15.705Z,1009.16
2019-01-15T11:47:15.766Z,1009.15
2019-01-15T11:48:15.805Z,1009.15
2019-01-15T11:49:15.829Z,1009.12
2019-01-15T11:50:15.884Z,1009.11
2019-01-15T11:51:15.889Z,1009.09
2019-01-15T11:52:15.868Z,1009.10
2019-01-15T11:53:16.355Z,1009.11
2019-01-15T11:54:16.702Z,1009.09
2019-01-15T11:55:16.939Z,1009.06
2019-01-15T11:56:17.210Z,1009.04
2019-01-15T11:57:17.541Z,1009.04
2019-01-15T11:58:17.785Z,1009.02
2019-01-15T11:59:17.996Z,1009.01
2019-01-15T12:00:18.569Z,1008.99
2019-01-15T12:01:18.675Z,1008.96
2019-01-15T12:02:22.359Z,1008.94
2019-01-15T12:03:19.404Z,1008.92
2019-01-15T12:04:19.634Z,1008.91
2019-01-15T12:05:20.032Z,1008.90
2019-01-15T12:06:20.488Z,1008.89
2019-01-15T12:07:20.466Z,1008.89
2019-01-15T12:08:20.885Z,1008.90
2019-01-15T12:09:21.307Z,1008.91
2019-01-15T12:10:21.427Z,1008.90
2019-01-15T12:11:21.836Z,1008.91
2019-01-15T12:12:22.147Z,1008.90
2019-01-15T12:13:22.275Z,1008.91
2019-01-15T12:14:22.712Z,1008.89
2019-01-15T12:15:23.188Z,1008.90
2019-01-15T12:16:23.283Z,1008.90
2019-01-15T12:17:23.158Z,1008.93
2019-01-15T12:18:23.805Z,1008.92
2019-01-15T12:19:23.693Z,1008.92